NJE987B EKCH-ESSB
Flight info
| Callsign | NJE987B |
|---|---|
| Flight time | N/A |
| Altitude | 45000 |
| Route | KEMAX DCT NEXIL DCT ROXEN DCT BEDOS DCT MIKNA N851 INWIQ |
| Aircraft | C700/M-SBDGHM1RWXY/LB2 |
Departure
| Time | 2026-04-25 14:34 |
|---|---|
| Airport | Copenhagen Kastrup Airport (EKCH) |
Arrival
| Time | N/A |
|---|---|
| Airport | Stockholm-Bromma Airport (ESSB) |
| Time | Latitude | Longitude | Altitude | Speed | Heading |
|---|---|---|---|---|---|
| 2026-04-25 14:04 | 55.62867 | 12.63123 | 18 ft | 0 kts | 40° |
| 2026-04-25 14:14 | 55.62864 | 12.63119 | 18 ft | 2 kts | 40° |
| 2026-04-25 14:14 | 55.62850 | 12.63097 | 20 ft | 3 kts | 42° |
| 2026-04-25 14:14 | 55.62838 | 12.63077 | 19 ft | 3 kts | 16° |
| 2026-04-25 14:14 | 55.62825 | 12.63079 | 19 ft | 3 kts | 320° |
| 2026-04-25 14:15 | 55.62812 | 12.63102 | 20 ft | 2 kts | 303° |
| 2026-04-25 14:15 | 55.62811 | 12.63106 | 20 ft | 1 kts | 303° |
| 2026-04-25 14:15 | 55.62794 | 12.63150 | 18 ft | 3 kts | 303° |
| 2026-04-25 14:15 | 55.62783 | 12.63180 | 18 ft | 3 kts | 303° |
| 2026-04-25 14:16 | 55.62772 | 12.63210 | 19 ft | 3 kts | 303° |
| 2026-04-25 14:16 | 55.62761 | 12.63240 | 19 ft | 3 kts | 303° |
| 2026-04-25 14:16 | 55.62750 | 12.63270 | 18 ft | 3 kts | 303° |
| 2026-04-25 14:16 | 55.62739 | 12.63300 | 18 ft | 3 kts | 303° |
| 2026-04-25 14:17 | 55.62728 | 12.63329 | 19 ft | 2 kts | 303° |
| 2026-04-25 14:17 | 55.62728 | 12.63330 | 19 ft | 2 kts | 304° |
| 2026-04-25 14:17 | 55.62741 | 12.63310 | 19 ft | 3 kts | 329° |
| 2026-04-25 14:17 | 55.62759 | 12.63308 | 18 ft | 3 kts | 8° |
| 2026-04-25 14:18 | 55.62774 | 12.63322 | 18 ft | 1 kts | 33° |
| 2026-04-25 14:18 | 55.62776 | 12.63324 | 18 ft | 0 kts | 33° |
| 2026-04-25 14:23 | 55.62790 | 12.63340 | 18 ft | 7 kts | 32° |
| 2026-04-25 14:24 | 55.62842 | 12.63403 | 19 ft | 10 kts | 47° |
| 2026-04-25 14:24 | 55.62859 | 12.63550 | 18 ft | 15 kts | 87° |
| 2026-04-25 14:24 | 55.62861 | 12.63729 | 20 ft | 13 kts | 103° |
| 2026-04-25 14:24 | 55.62844 | 12.63846 | 19 ft | 16 kts | 104° |
| 2026-04-25 14:25 | 55.62799 | 12.63960 | 18 ft | 14 kts | 173° |
| 2026-04-25 14:25 | 55.62728 | 12.63913 | 18 ft | 10 kts | 185° |
| 2026-04-25 14:25 | 55.62664 | 12.64035 | 19 ft | 13 kts | 123° |
| 2026-04-25 14:25 | 55.62646 | 12.64084 | 18 ft | 15 kts | 123° |
| 2026-04-25 14:26 | 55.62530 | 12.64394 | 18 ft | 20 kts | 124° |
| 2026-04-25 14:26 | 55.62495 | 12.64486 | 19 ft | 8 kts | 122° |
| 2026-04-25 14:26 | 55.62437 | 12.64650 | 19 ft | 17 kts | 123° |
| 2026-04-25 14:26 | 55.62386 | 12.64782 | 18 ft | 20 kts | 124° |
| 2026-04-25 14:27 | 55.62303 | 12.65011 | 19 ft | 23 kts | 123° |
| 2026-04-25 14:27 | 55.62270 | 12.65130 | 20 ft | 7 kts | 59° |
| 2026-04-25 14:27 | 55.62296 | 12.65286 | 18 ft | 18 kts | 89° |
| 2026-04-25 14:27 | 55.62300 | 12.65495 | 18 ft | 13 kts | 87° |
| 2026-04-25 14:28 | 55.62299 | 12.65683 | 18 ft | 18 kts | 89° |
| 2026-04-25 14:28 | 55.62304 | 12.65915 | 18 ft | 15 kts | 86° |
| 2026-04-25 14:28 | 55.62327 | 12.66040 | 18 ft | 13 kts | 90° |
| 2026-04-25 14:28 | 55.62251 | 12.66146 | 18 ft | 17 kts | 157° |
| 2026-04-25 14:29 | 55.62127 | 12.66226 | 19 ft | 21 kts | 159° |
| 2026-04-25 14:29 | 55.62054 | 12.66276 | 20 ft | 10 kts | 159° |
| 2026-04-25 14:29 | 55.61959 | 12.66326 | 19 ft | 19 kts | 165° |
| 2026-04-25 14:29 | 55.61870 | 12.66384 | 18 ft | 12 kts | 152° |
| 2026-04-25 14:30 | 55.61856 | 12.66531 | 18 ft | 16 kts | 64° |
| 2026-04-25 14:30 | 55.61882 | 12.66956 | 20 ft | 18 kts | 123° |
| 2026-04-25 14:30 | 55.61800 | 12.67001 | 19 ft | 14 kts | 169° |
| 2026-04-25 14:31 | 55.61691 | 12.67028 | 18 ft | 18 kts | 174° |
| 2026-04-25 14:31 | 55.61581 | 12.67077 | 18 ft | 16 kts | 172° |
| 2026-04-25 14:31 | 55.61458 | 12.67116 | 20 ft | 16 kts | 169° |
| 2026-04-25 14:31 | 55.61375 | 12.67131 | 18 ft | 11 kts | 186° |
| 2026-04-25 14:32 | 55.61301 | 12.67086 | 21 ft | 9 kts | 207° |
| 2026-04-25 14:32 | 55.61271 | 12.67022 | 19 ft | 5 kts | 274° |
| 2026-04-25 14:32 | 55.61280 | 12.66984 | 19 ft | 0 kts | 303° |
| 2026-04-25 14:34 | 55.61303 | 12.66921 | 20 ft | 30 kts | 303° |
| 2026-04-25 14:34 | 55.61604 | 12.66118 | 123 ft | 114 kts | 302° |
| 2026-04-25 14:34 | 55.62128 | 12.64855 | 968 ft | 145 kts | 305° |
| 2026-04-25 14:34 | 55.62745 | 12.63233 | 1901 ft | 184 kts | 300° |
| 2026-04-25 14:35 | 55.63492 | 12.60999 | 2042 ft | 216 kts | 301° |
| 2026-04-25 14:35 | 55.64227 | 12.59003 | 2750 ft | 188 kts | 302° |
| 2026-04-25 14:35 | 55.65040 | 12.56817 | 3702 ft | 230 kts | 303° |
| 2026-04-25 14:35 | 55.65965 | 12.54429 | 5095 ft | 237 kts | 308° |
| 2026-04-25 14:36 | 55.67082 | 12.52375 | 6478 ft | 226 kts | 316° |
| 2026-04-25 14:36 | 55.68318 | 12.50749 | 7771 ft | 217 kts | 323° |
| 2026-04-25 14:36 | 55.69666 | 12.49510 | 9091 ft | 224 kts | 330° |
| 2026-04-25 14:36 | 55.71195 | 12.48635 | 10478 ft | 239 kts | 338° |
| 2026-04-25 14:37 | 55.72899 | 12.48214 | 11787 ft | 261 kts | 346° |
| 2026-04-25 14:37 | 55.74828 | 12.48412 | 12849 ft | 296 kts | 358° |
| 2026-04-25 14:37 | 55.76919 | 12.49477 | 13914 ft | 332 kts | 11° |
| 2026-04-25 14:37 | 55.79027 | 12.51618 | 14910 ft | 365 kts | 23° |
| 2026-04-25 14:38 | 55.81136 | 12.54276 | 16088 ft | 375 kts | 24° |
| 2026-04-25 14:38 | 55.83274 | 12.56973 | 17409 ft | 378 kts | 22° |
| 2026-04-25 14:38 | 55.85441 | 12.59643 | 18680 ft | 381 kts | 21° |
| 2026-04-25 14:38 | 55.87537 | 12.62266 | 20771 ft | 358 kts | 21° |
| 2026-04-25 14:39 | 55.89523 | 12.65165 | 22059 ft | 385 kts | 29° |
| 2026-04-25 14:39 | 55.91367 | 12.68819 | 23226 ft | 406 kts | 38° |
| 2026-04-25 14:39 | 55.92983 | 12.73101 | 24309 ft | 428 kts | 47° |
| 2026-04-25 14:39 | 55.94343 | 12.77932 | 25320 ft | 440 kts | 52° |
| 2026-04-25 14:40 | 55.95679 | 12.82864 | 26310 ft | 445 kts | 52° |
| 2026-04-25 14:40 | 55.97053 | 12.87851 | 27264 ft | 449 kts | 52° |
| 2026-04-25 14:40 | 55.98444 | 12.92880 | 28197 ft | 455 kts | 52° |
| 2026-04-25 14:40 | 55.99834 | 12.97966 | 29097 ft | 461 kts | 53° |
| 2026-04-25 14:41 | 56.01239 | 13.03146 | 29951 ft | 466 kts | 53° |
| 2026-04-25 14:41 | 56.02664 | 13.08388 | 30698 ft | 470 kts | 53° |
| 2026-04-25 14:41 | 56.04100 | 13.13665 | 31473 ft | 473 kts | 54° |
| 2026-04-25 14:41 | 56.05538 | 13.18969 | 32186 ft | 479 kts | 55° |
| 2026-04-25 14:42 | 56.07001 | 13.24377 | 32763 ft | 485 kts | 56° |
| 2026-04-25 14:42 | 56.07970 | 13.27981 | 33303 ft | 485 kts | 56° |
| 2026-04-25 14:42 | 56.09907 | 13.35214 | 34552 ft | 479 kts | 56° |
| 2026-04-25 14:42 | 56.11506 | 13.40363 | 35374 ft | 467 kts | 49° |
| 2026-04-25 14:43 | 56.13432 | 13.44968 | 36153 ft | 456 kts | 41° |
| 2026-04-25 14:43 | 56.15591 | 13.48947 | 36886 ft | 447 kts | 34° |
| 2026-04-25 14:43 | 56.17997 | 13.52394 | 37600 ft | 439 kts | 28° |
| 2026-04-25 14:43 | 56.20470 | 13.55597 | 38302 ft | 438 kts | 28° |
| 2026-04-25 14:44 | 56.22927 | 13.58825 | 38857 ft | 438 kts | 29° |
| 2026-04-25 14:44 | 56.25379 | 13.62061 | 39381 ft | 437 kts | 29° |
| 2026-04-25 14:44 | 56.27830 | 13.65283 | 39896 ft | 436 kts | 29° |
| 2026-04-25 14:44 | 56.30283 | 13.68503 | 40412 ft | 436 kts | 29° |
| 2026-04-25 14:45 | 56.32726 | 13.71725 | 40939 ft | 435 kts | 29° |
| 2026-04-25 14:45 | 56.35160 | 13.74947 | 41494 ft | 434 kts | 30° |
| 2026-04-25 14:45 | 56.37597 | 13.78177 | 41994 ft | 434 kts | 30° |
| 2026-04-25 14:45 | 56.40026 | 13.81400 | 42496 ft | 434 kts | 30° |
| 2026-04-25 14:46 | 56.42457 | 13.84632 | 43009 ft | 433 kts | 30° |
| 2026-04-25 14:46 | 56.44882 | 13.87861 | 43515 ft | 433 kts | 30° |
| 2026-04-25 14:46 | 56.47301 | 13.91087 | 44028 ft | 432 kts | 30° |
| 2026-04-25 14:46 | 56.49716 | 13.94314 | 44502 ft | 430 kts | 30° |
| 2026-04-25 14:47 | 56.52099 | 13.97508 | 44698 ft | 428 kts | 30° |
| 2026-04-25 14:47 | 56.53698 | 13.99642 | 44713 ft | 434 kts | 30° |
| 2026-04-25 14:47 | 56.56930 | 14.03964 | 44706 ft | 448 kts | 31° |
| 2026-04-25 14:47 | 56.59510 | 14.07440 | 44707 ft | 458 kts | 31° |
| 2026-04-25 14:48 | 56.64651 | 14.14380 | 44707 ft | 464 kts | 31° |
| 2026-04-25 14:48 | 56.69833 | 14.21382 | 44705 ft | 467 kts | 31° |
| 2026-04-25 14:49 | 56.75001 | 14.28405 | 44708 ft | 460 kts | 31° |
| 2026-04-25 14:49 | 56.80106 | 14.35348 | 44698 ft | 459 kts | 31° |
| 2026-04-25 14:50 | 56.82647 | 14.38809 | 44413 ft | 465 kts | 31° |
| 2026-04-25 14:50 | 56.85264 | 14.42396 | 43945 ft | 463 kts | 32° |
| 2026-04-25 14:50 | 56.87797 | 14.45877 | 43525 ft | 457 kts | 31° |
| 2026-04-25 14:50 | 56.90347 | 14.49286 | 43108 ft | 451 kts | 30° |
| 2026-04-25 14:51 | 56.92864 | 14.52684 | 42698 ft | 449 kts | 31° |
| 2026-04-25 14:51 | 56.95364 | 14.56171 | 42266 ft | 452 kts | 32° |
| 2026-04-25 14:51 | 56.97878 | 14.59687 | 41858 ft | 457 kts | 31° |
| 2026-04-25 14:51 | 57.00435 | 14.63210 | 41436 ft | 462 kts | 31° |
| 2026-04-25 14:52 | 57.03012 | 14.66759 | 41020 ft | 464 kts | 31° |
| 2026-04-25 14:52 | 57.05582 | 14.70337 | 40597 ft | 464 kts | 32° |
| 2026-04-25 14:52 | 57.08150 | 14.73927 | 40174 ft | 463 kts | 32° |
| 2026-04-25 14:52 | 57.09881 | 14.76341 | 39885 ft | 462 kts | 31° |
| 2026-04-25 14:53 | 57.13271 | 14.81063 | 39325 ft | 462 kts | 31° |
| 2026-04-25 14:53 | 57.15843 | 14.84635 | 38897 ft | 463 kts | 31° |
| 2026-04-25 14:53 | 57.18467 | 14.88170 | 38703 ft | 473 kts | 31° |
| 2026-04-25 14:53 | 57.21133 | 14.91861 | 38701 ft | 486 kts | 32° |
| 2026-04-25 14:54 | 57.26571 | 14.99644 | 38692 ft | 496 kts | 32° |
| 2026-04-25 14:54 | 57.31973 | 15.07213 | 38700 ft | 483 kts | 32° |
| 2026-04-25 14:55 | 57.37335 | 15.14835 | 38679 ft | 488 kts | 32° |
| 2026-04-25 14:55 | 57.42774 | 15.22375 | 38691 ft | 489 kts | 32° |
| 2026-04-25 14:56 | 57.48137 | 15.30154 | 38672 ft | 488 kts | 32° |
| 2026-04-25 14:56 | 57.53520 | 15.37822 | 38672 ft | 487 kts | 32° |
| 2026-04-25 14:57 | 57.58882 | 15.45569 | 38667 ft | 488 kts | 32° |
| 2026-04-25 14:57 | 57.64242 | 15.53311 | 38661 ft | 488 kts | 32° |
| 2026-04-25 14:58 | 57.69602 | 15.61092 | 38660 ft | 487 kts | 32° |
| 2026-04-25 14:58 | 57.72256 | 15.64958 | 38355 ft | 494 kts | 32° |
| 2026-04-25 14:58 | 57.74884 | 15.68813 | 37662 ft | 446 kts | 32° |
| 2026-04-25 14:59 | 57.77373 | 15.72443 | 37050 ft | 471 kts | 31° |
| 2026-04-25 14:59 | 57.80003 | 15.76239 | 36514 ft | 480 kts | 32° |
| 2026-04-25 14:59 | 57.82663 | 15.80158 | 35996 ft | 479 kts | 32° |
| 2026-04-25 14:59 | 57.85232 | 15.83973 | 35501 ft | 476 kts | 32° |
| 2026-04-25 15:00 | 57.87828 | 15.87791 | 35015 ft | 473 kts | 32° |
| 2026-04-25 15:00 | 57.90436 | 15.91612 | 34547 ft | 475 kts | 32° |
| 2026-04-25 15:00 | 57.93038 | 15.95450 | 34100 ft | 477 kts | 32° |
| 2026-04-25 15:00 | 57.95643 | 15.99322 | 33667 ft | 478 kts | 32° |
| 2026-04-25 15:01 | 57.98257 | 16.03208 | 33158 ft | 478 kts | 32° |
| 2026-04-25 15:01 | 58.00867 | 16.07080 | 32682 ft | 479 kts | 32° |
| 2026-04-25 15:01 | 58.03485 | 16.10972 | 32257 ft | 479 kts | 32° |
| 2026-04-25 15:01 | 58.06096 | 16.14871 | 31809 ft | 478 kts | 33° |
| 2026-04-25 15:02 | 58.08725 | 16.18801 | 31367 ft | 485 kts | 33° |
| 2026-04-25 15:02 | 58.11384 | 16.22781 | 30939 ft | 487 kts | 33° |
| 2026-04-25 15:02 | 58.14035 | 16.26764 | 30528 ft | 484 kts | 33° |
| 2026-04-25 15:02 | 58.16661 | 16.30717 | 30119 ft | 483 kts | 32° |
| 2026-04-25 15:03 | 58.19298 | 16.34684 | 29728 ft | 485 kts | 32° |
| 2026-04-25 15:03 | 58.21943 | 16.38670 | 29261 ft | 486 kts | 33° |
| 2026-04-25 15:03 | 58.24589 | 16.42675 | 28800 ft | 487 kts | 33° |
| 2026-04-25 15:03 | 58.27241 | 16.46699 | 28409 ft | 488 kts | 33° |
| 2026-04-25 15:04 | 58.29889 | 16.50720 | 27970 ft | 488 kts | 33° |
| 2026-04-25 15:04 | 58.32542 | 16.54753 | 27550 ft | 488 kts | 33° |
| 2026-04-25 15:04 | 58.35159 | 16.58742 | 27141 ft | 488 kts | 33° |
| 2026-04-25 15:04 | 58.37787 | 16.62762 | 26750 ft | 479 kts | 33° |
| 2026-04-25 15:05 | 58.40363 | 16.66722 | 26338 ft | 461 kts | 33° |
| 2026-04-25 15:05 | 58.42782 | 16.70531 | 25945 ft | 458 kts | 35° |
| 2026-04-25 15:05 | 58.45104 | 16.74635 | 25555 ft | 451 kts | 39° |
| 2026-04-25 15:06 | 58.49344 | 16.83186 | 24792 ft | 441 kts | 40° |
| 2026-04-25 15:06 | 58.51531 | 16.87268 | 24479 ft | 436 kts | 38° |
| 2026-04-25 15:06 | 58.53695 | 16.91281 | 24142 ft | 433 kts | 39° |
| 2026-04-25 15:06 | 58.55825 | 16.95395 | 23797 ft | 437 kts | 40° |
| 2026-04-25 15:07 | 58.57951 | 16.99564 | 23463 ft | 438 kts | 40° |
| 2026-04-25 15:07 | 58.60094 | 17.03695 | 23110 ft | 437 kts | 39° |
| 2026-04-25 15:07 | 58.62231 | 17.07784 | 22708 ft | 430 kts | 39° |
| 2026-04-25 15:07 | 58.64319 | 17.11826 | 22294 ft | 422 kts | 40° |
| 2026-04-25 15:08 | 58.66369 | 17.15814 | 21894 ft | 419 kts | 40° |
| 2026-04-25 15:08 | 58.68416 | 17.19783 | 21506 ft | 417 kts | 39° |
| 2026-04-25 15:08 | 58.70456 | 17.23741 | 21124 ft | 417 kts | 39° |
| 2026-04-25 15:08 | 58.72493 | 17.27709 | 20678 ft | 418 kts | 39° |
| 2026-04-25 15:09 | 58.74515 | 17.31664 | 20182 ft | 408 kts | 40° |
| 2026-04-25 15:09 | 58.76478 | 17.35516 | 19646 ft | 398 kts | 40° |
| 2026-04-25 15:09 | 58.80334 | 17.43047 | 18608 ft | 392 kts | 40° |
| 2026-04-25 15:10 | 58.82239 | 17.46794 | 18035 ft | 391 kts | 40° |
| 2026-04-25 15:10 | 58.84133 | 17.50534 | 17268 ft | 387 kts | 40° |
| 2026-04-25 15:10 | 58.87213 | 17.56613 | 16014 ft | 375 kts | 40° |
| 2026-04-25 15:11 | 58.88984 | 17.60123 | 15122 ft | 339 kts | 40° |
| 2026-04-25 15:11 | 58.90579 | 17.63309 | 14185 ft | 311 kts | 39° |
| 2026-04-25 15:11 | 58.92042 | 17.66205 | 13259 ft | 298 kts | 39° |
| 2026-04-25 15:12 | 58.95019 | 17.72062 | 11371 ft | 296 kts | 40° |
| 2026-04-25 15:12 | 58.96356 | 17.74763 | 10447 ft | 281 kts | 40° |
| 2026-04-25 15:12 | 58.97728 | 17.77495 | 9484 ft | 278 kts | 40° |
| 2026-04-25 15:12 | 58.98636 | 17.79286 | 9051 ft | 278 kts | 40° |
| 2026-04-25 15:13 | 59.00385 | 17.82784 | 8631 ft | 265 kts | 40° |
| 2026-04-25 15:13 | 59.02958 | 17.87923 | 7918 ft | 266 kts | 40° |
| 2026-04-25 15:13 | 59.04242 | 17.90500 | 7569 ft | 265 kts | 40° |
| 2026-04-25 15:14 | 59.05517 | 17.93062 | 7193 ft | 260 kts | 41° |
| 2026-04-25 15:14 | 59.06761 | 17.95563 | 6888 ft | 256 kts | 41° |
| 2026-04-25 15:14 | 59.07999 | 17.98048 | 6556 ft | 255 kts | 41° |
| 2026-04-25 15:14 | 59.09215 | 18.00498 | 6228 ft | 247 kts | 41° |
| 2026-04-25 15:15 | 59.10390 | 18.02870 | 5892 ft | 240 kts | 41° |
| 2026-04-25 15:15 | 59.11530 | 18.05169 | 5573 ft | 232 kts | 41° |
| 2026-04-25 15:15 | 59.12636 | 18.07403 | 5270 ft | 225 kts | 41° |
| 2026-04-25 15:15 | 59.13707 | 18.09567 | 4974 ft | 219 kts | 41° |
| 2026-04-25 15:16 | 59.14753 | 18.11682 | 4692 ft | 214 kts | 41° |
| 2026-04-25 15:16 | 59.15777 | 18.13753 | 4412 ft | 211 kts | 41° |
| 2026-04-25 15:16 | 59.17877 | 18.17586 | 3855 ft | 206 kts | 30° |
| 2026-04-25 15:17 | 59.20119 | 18.20647 | 3353 ft | 186 kts | 32° |
| 2026-04-25 15:17 | 59.21177 | 18.22108 | 3107 ft | 187 kts | 32° |
| 2026-04-25 15:17 | 59.22249 | 18.23585 | 2862 ft | 188 kts | 32° |
| 2026-04-25 15:18 | 59.23308 | 18.25013 | 2608 ft | 179 kts | 26° |
| 2026-04-25 15:18 | 59.25282 | 18.23773 | 2480 ft | 169 kts | 299° |
| 2026-04-25 15:18 | 59.25664 | 18.21592 | 2495 ft | 167 kts | 305° |
| 2026-04-25 15:19 | 59.26271 | 18.19784 | 2525 ft | 149 kts | 310° |
| 2026-04-25 15:19 | 59.26639 | 18.18693 | 2492 ft | 143 kts | 311° |
| 2026-04-25 15:19 | 59.27415 | 18.16507 | 2502 ft | 151 kts | 311° |
| 2026-04-25 15:19 | 59.28025 | 18.14821 | 2501 ft | 152 kts | 311° |
| 2026-04-25 15:20 | 59.28631 | 18.13135 | 2505 ft | 151 kts | 311° |
| 2026-04-25 15:20 | 59.29231 | 18.11468 | 2468 ft | 151 kts | 311° |
| 2026-04-25 15:20 | 59.29813 | 18.09845 | 2231 ft | 137 kts | 311° |
| 2026-04-25 15:20 | 59.30336 | 18.08384 | 2019 ft | 132 kts | 312° |
| 2026-04-25 15:21 | 59.30838 | 18.06978 | 1846 ft | 110 kts | 313° |
| 2026-04-25 15:21 | 59.31275 | 18.05783 | 1648 ft | 105 kts | 315° |
| 2026-04-25 15:21 | 59.31686 | 18.04712 | 1322 ft | 97 kts | 314° |
| 2026-04-25 15:21 | 59.32115 | 18.03532 | 1257 ft | 113 kts | 312° |
| 2026-04-25 15:22 | 59.32488 | 18.02291 | 1089 ft | 101 kts | 310° |
| 2026-04-25 15:22 | 59.32874 | 18.01176 | 949 ft | 99 kts | 315° |
| 2026-04-25 15:22 | 59.33299 | 18.00051 | 810 ft | 102 kts | 315° |
| 2026-04-25 15:22 | 59.33717 | 17.98921 | 618 ft | 104 kts | 313° |
| 2026-04-25 15:23 | 59.34137 | 17.97760 | 423 ft | 106 kts | 315° |
| 2026-04-25 15:23 | 59.34570 | 17.96576 | 235 ft | 107 kts | 311° |
| 2026-04-25 15:23 | 59.34990 | 17.95348 | 49 ft | 107 kts | 322° |